Time;durP1;ratioP1;P1;durP2;ratioP2;P2;SDS_P1;SDS_P2;PMS_P1;PMS_P2;Temp;Humidity;BMP_temperature;BMP_pressure;BME280_temperature;BME280_humidity;BME280_pressure;Samples;Min_cycle;Max_cycle;Signal;HPM_P1;HPM_P2
2023/01/20 00:00:07;;;;;;;;;;;-0.20;99.90;;;;;;5053118;28;19920;-87
2023/01/20 00:02:33;;;;;;;;;;;-0.50;99.90;;;;;;5033006;28;19983;-87
2023/01/20 00:04:58;;;;;;;;;;;-0.50;99.90;;;;;;5029770;28;19932;-84
2023/01/20 00:07:24;;;;;;;;;;;-0.50;99.90;;;;;;5056501;28;19917;-83
2023/01/20 00:09:53;;;;;;;;;;;-0.50;99.90;;;;;;5060418;28;19921;-86
2023/01/20 00:12:18;;;;;;;;;;;-0.50;99.90;;;;;;5059354;28;19966;-84
2023/01/20 00:14:47;;;;;;;;;;;-0.50;99.90;;;;;;5059508;28;20288;-84
2023/01/20 00:17:13;;;;;;;;;;;-0.60;99.90;;;;;;5031626;28;19921;-81
2023/01/20 00:19:38;;;;;;;;;;;-0.60;99.90;;;;;;5062108;28;19920;-81
2023/01/20 00:22:04;;;;;;;;;;;1.00;99.90;;;;;;5064537;28;19921;-81
2023/01/20 00:24:29;;;;;;;;;;;-0.70;99.90;;;;;;5033233;28;19956;-82
2023/01/20 00:26:55;;;;;;;;;;;0.70;99.90;;;;;;5054439;28;20385;-80
2023/01/20 00:29:21;;;;;;;;;;;-0.70;99.90;;;;;;5040138;28;19924;-80
2023/01/20 00:31:49;;;;;;;;;;;-0.80;99.90;;;;;;5041929;28;19920;-80
2023/01/20 00:34:15;;;;;;;;;;;-0.80;99.90;;;;;;5065377;28;20514;-80
2023/01/20 00:36:40;;;;;;;;;;;-0.80;99.90;;;;;;5074172;28;19975;-81
2023/01/20 00:39:06;;;;;;;;;;;-0.90;99.90;;;;;;5024602;28;20011;-80
2023/01/20 00:41:34;;;;;;;;;;;-0.20;99.90;;;;;;5059131;28;20319;-79
2023/01/20 00:44:03;;;;;;;;;;;-1.00;99.90;;;;;;5080870;28;19939;-78
2023/01/20 00:46:29;;;;;;;;;;;-1.10;99.90;;;;;;5075835;28;19926;-81
2023/01/20 00:48:54;;;;;;;;;;;-0.90;99.90;;;;;;5074040;28;19964;-80
2023/01/20 00:51:20;;;;;;;;;;;-1.00;99.90;;;;;;5083521;28;19920;-78
2023/01/20 00:54:00;;;;;;;;;;;-1.00;99.90;;;;;;5016242;28;19921;-80
2023/01/20 00:56:26;;;;;;;;;;;-1.10;99.90;;;;;;5061422;28;19939;-80
2023/01/20 00:58:55;;;;;;;;;;;-1.10;99.90;;;;;;5072339;28;19927;-80
2023/01/20 01:01:21;;;;;;;;;;;-1.40;99.90;;;;;;5058102;28;19947;-81
2023/01/20 01:03:46;;;;;;;;;;;-1.30;99.90;;;;;;5048874;28;20015;-79
2023/01/20 01:06:15;;;;;;;;;;;-1.20;99.90;;;;;;5065730;28;19999;-81
2023/01/20 01:08:40;;;;;;;;;;;-1.30;99.90;;;;;;5046646;28;19955;-80
2023/01/20 01:11:06;;;;;;;;;;;-1.30;99.90;;;;;;5041996;28;19969;-80
2023/01/20 01:13:32;;;;;;;;;;;-1.30;99.90;;;;;;5062125;28;19974;-81
2023/01/20 01:15:57;;;;;;;;;;;-1.30;99.90;;;;;;5058694;28;19947;-80
2023/01/20 01:18:23;;;;;;;;;;;-1.30;99.90;;;;;;5030875;28;19921;-82
2023/01/20 01:20:49;;;;;;;;;;;-1.30;99.90;;;;;;5066608;28;20006;-80
2023/01/20 01:23:14;;;;;;;;;;;1.70;99.90;;;;;;5063187;28;19956;-81
2023/01/20 01:25:43;;;;;;;;;;;-1.30;99.90;;;;;;5032957;28;20359;-80
2023/01/20 01:28:11;;;;;;;;;;;-0.80;99.90;;;;;;5041118;28;19920;-80
2023/01/20 01:30:37;;;;;;;;;;;0.50;99.90;;;;;;5062096;28;20012;-79
2023/01/20 01:33:02;;;;;;;;;;;-1.30;99.90;;;;;;5066599;28;19939;-82
2023/01/20 01:35:28;;;;;;;;;;;0.50;99.90;;;;;;5061681;28;19921;-80
2023/01/20 01:37:53;;;;;;;;;;;-1.30;99.90;;;;;;5065959;28;19927;-80
2023/01/20 01:40:19;;;;;;;;;;;-1.30;99.90;;;;;;5064105;28;20418;-80
2023/01/20 01:42:44;;;;;;;;;;;-1.30;99.90;;;;;;5066935;28;19921;-81
2023/01/20 01:45:10;;;;;;;;;;;-0.20;99.90;;;;;;5062155;28;19920;-82
2023/01/20 01:47:41;;;;;;;;;;;0.60;99.90;;;;;;5033594;28;19956;-81
2023/01/20 01:50:07;;;;;;;;;;;-1.30;99.90;;;;;;5066810;28;19920;-81
2023/01/20 01:52:33;;;;;;;;;;;-1.30;99.90;;;;;;5062843;28;19924;-80
2023/01/20 01:54:59;;;;;;;;;;;-1.40;99.90;;;;;;5057514;28;19980;-80
2023/01/20 01:57:25;;;;;;;;;;;-1.30;99.90;;;;;;5047357;28;19921;-80
2023/01/20 01:59:51;;;;;;;;;;;-1.50;99.90;;;;;;5047376;28;20380;-80
2023/01/20 02:02:16;;;;;;;;;;;-1.40;99.90;;;;;;5057844;28;19920;-80
2023/01/20 02:04:42;;;;;;;;;;;-1.00;99.90;;;;;;5038466;28;19921;-80
2023/01/20 02:07:10;;;;;;;;;;;-0.70;99.90;;;;;;5062445;28;19928;-80
2023/01/20 02:09:36;;;;;;;;;;;0.10;99.90;;;;;;5064905;28;20276;-80
2023/01/20 02:12:05;;;;;;;;;;;-0.60;99.90;;;;;;5060970;28;19920;-80
2023/01/20 02:14:36;;;;;;;;;;;-1.10;99.90;;;;;;5043336;28;19929;-80
2023/01/20 02:17:10;;;;;;;;;;;-0.10;99.90;;;;;;5029268;28;19967;-80
2023/01/20 02:19:42;;;;;;;;;;;-1.20;99.90;;;;;;5058695;28;19978;-80
2023/01/20 02:22:13;;;;;;;;;;;-1.20;99.90;;;;;;5029006;28;19921;-80
2023/01/20 02:25:05;;;;;;;;;;;-1.20;99.90;;;;;;5058299;28;20015;-80
2023/01/20 02:27:43;;;;;;;;;;;-1.20;99.90;;;;;;5057082;28;19928;-80
2023/01/20 02:30:21;;;;;;;;;;;-1.20;99.90;;;;;;5040173;28;19920;-80
2023/01/20 02:32:49;;;;;;;;;;;-1.20;99.90;;;;;;5063181;28;19931;-81
2023/01/20 02:35:25;;;;;;;;;;;-1.20;99.90;;;;;;5045992;28;19920;-82
2023/01/20 02:37:50;;;;;;;;;;;-1.30;99.90;;;;;;5062953;28;19928;-80
2023/01/20 02:40:34;;;;;;;;;;;-1.20;99.90;;;;;;5063780;28;19924;-80
2023/01/20 02:43:09;;;;;;;;;;;-1.30;99.90;;;;;;5027911;28;20266;-80
2023/01/20 02:45:47;;;;;;;;;;;-1.30;99.90;;;;;;5059218;28;20425;-80
2023/01/20 02:48:17;;;;;;;;;;;-1.20;99.90;;;;;;5063297;28;19921;-80
2023/01/20 02:50:51;;;;;;;;;;;-1.20;99.90;;;;;;5065009;28;20003;-79
2023/01/20 02:53:20;;;;;;;;;;;-1.10;99.90;;;;;;5064278;28;19931;-80
2023/01/20 02:55:47;;;;;;;;;;;-1.10;99.90;;;;;;5041764;28;19925;-79
2023/01/20 02:58:17;;;;;;;;;;;-1.10;99.90;;;;;;5065340;28;19999;-81
2023/01/20 03:00:45;;;;;;;;;;;-1.10;99.90;;;;;;5062776;28;19920;-81
2023/01/20 03:03:13;;;;;;;;;;;-0.90;99.90;;;;;;5063301;28;19924;-80
2023/01/20 03:05:48;;;;;;;;;;;-0.90;99.90;;;;;;5061469;28;19921;-80
2023/01/20 03:08:15;;;;;;;;;;;-0.90;99.90;;;;;;5045642;28;19921;-80
2023/01/20 03:10:41;;;;;;;;;;;-0.90;99.90;;;;;;5066383;28;20375;-80
2023/01/20 03:13:14;;;;;;;;;;;-0.40;99.90;;;;;;5029319;28;19921;-79
2023/01/20 03:15:53;;;;;;;;;;;-0.90;99.90;;;;;;5061318;28;19920;-80
2023/01/20 03:18:19;;;;;;;;;;;-1.00;99.90;;;;;;5033725;28;20391;-79
2023/01/20 03:20:44;;;;;;;;;;;0.80;99.90;;;;;;5062638;28;19920;-80
2023/01/20 03:23:10;;;;;;;;;;;-0.90;99.90;;;;;;5062892;28;20265;-80
2023/01/20 03:25:37;;;;;;;;;;;-1.00;99.90;;;;;;5064405;28;19978;-80
2023/01/20 03:28:06;;;;;;;;;;;-0.90;99.90;;;;;;5061807;28;20003;-80
2023/01/20 03:30:35;;;;;;;;;;;-0.90;99.90;;;;;;5037581;28;19928;-80
2023/01/20 03:33:00;;;;;;;;;;;0.10;99.90;;;;;;5061038;28;19920;-80
2023/01/20 03:35:26;;;;;;;;;;;-0.80;99.90;;;;;;5064353;28;19971;-80
2023/01/20 03:37:52;;;;;;;;;;;-0.90;99.90;;;;;;5057468;28;19968;-80
2023/01/20 03:40:22;;;;;;;;;;;0.20;99.90;;;;;;5030473;28;19921;-79
2023/01/20 03:42:55;;;;;;;;;;;-0.80;99.90;;;;;;5060912;28;19920;-80
2023/01/20 03:45:41;;;;;;;;;;;-0.90;99.90;;;;;;5058736;28;19920;-80
2023/01/20 03:48:06;;;;;;;;;;;-0.80;99.90;;;;;;5056490;28;19974;-80
2023/01/20 03:50:38;;;;;;;;;;;-0.70;99.90;;;;;;5050486;28;20363;-80
2023/01/20 03:53:03;;;;;;;;;;;-0.70;99.90;;;;;;5063638;28;19935;-80
2023/01/20 03:55:34;;;;;;;;;;;1.30;99.90;;;;;;5032483;28;19921;-80
2023/01/20 03:58:04;;;;;;;;;;;-0.80;99.90;;;;;;5062720;28;19931;-81
2023/01/20 04:00:31;;;;;;;;;;;-0.80;99.90;;;;;;5060996;28;19921;-80
2023/01/20 04:02:58;;;;;;;;;;;-0.80;99.90;;;;;;5043911;28;19927;-80
2023/01/20 04:05:25;;;;;;;;;;;-0.70;99.90;;;;;;5060013;28;19920;-80
2023/01/20 04:07:52;;;;;;;;;;;-0.70;99.90;;;;;;5034795;28;19921;-80
2023/01/20 04:10:18;;;;;;;;;;;-0.60;99.90;;;;;;5055346;28;19944;-80
2023/01/20 04:12:43;;;;;;;;;;;-0.70;99.90;;;;;;5063009;28;20383;-79
2023/01/20 04:15:11;;;;;;;;;;;-0.70;99.90;;;;;;5057124;28;20054;-80
2023/01/20 04:17:37;;;;;;;;;;;-0.60;99.90;;;;;;5041614;28;19921;-80
2023/01/20 04:20:05;;;;;;;;;;;-0.60;99.90;;;;;;5062025;28;20114;-79
2023/01/20 04:22:37;;;;;;;;;;;-0.60;99.90;;;;;;5042993;28;19920;-80
2023/01/20 04:25:21;;;;;;;;;;;-0.40;99.90;;;;;;5026027;28;19928;-80
2023/01/20 04:27:47;;;;;;;;;;;-0.50;99.90;;;;;;5031434;28;19927;-80
2023/01/20 04:30:13;;;;;;;;;;;-0.60;99.90;;;;;;5025900;28;20296;-80
2023/01/20 04:32:41;;;;;;;;;;;-0.50;99.90;;;;;;5051816;28;19929;-80
2023/01/20 04:35:09;;;;;;;;;;;-0.40;99.90;;;;;;5030460;28;19927;-81
2023/01/20 04:37:34;;;;;;;;;;;-0.30;99.90;;;;;;5023612;28;19921;-81
2023/01/20 04:40:00;;;;;;;;;;;-0.30;99.90;;;;;;5043538;28;19920;-81
2023/01/20 04:42:25;;;;;;;;;;;-0.40;99.90;;;;;;5013222;28;19958;-80
2023/01/20 04:44:51;;;;;;;;;;;-0.30;99.90;;;;;;5045012;28;19921;-81
2023/01/20 04:47:17;;;;;;;;;;;-0.50;99.90;;;;;;5045301;28;19928;-81
2023/01/20 04:49:43;;;;;;;;;;;-0.50;99.90;;;;;;5060073;28;19920;-80
2023/01/20 04:52:08;;;;;;;;;;;0.30;99.90;;;;;;5062321;28;20334;-81
2023/01/20 04:54:34;;;;;;;;;;;-0.60;99.90;;;;;;5060179;28;20012;-80
2023/01/20 04:56:59;;;;;;;;;;;0.30;99.90;;;;;;5046987;28;20040;-80
2023/01/20 04:59:25;;;;;;;;;;;1.40;99.90;;;;;;5025304;28;19921;-81
2023/01/20 05:01:51;;;;;;;;;;;-0.70;99.90;;;;;;5044074;28;19927;-82
2023/01/20 05:04:16;;;;;;;;;;;-0.70;99.90;;;;;;5058661;28;19924;-81
2023/01/20 05:06:43;;;;;;;;;;;-0.70;99.90;;;;;;5044897;28;20367;-80
2023/01/20 05:09:15;;;;;;;;;;;-0.70;99.90;;;;;;5062582;28;19921;-81
2023/01/20 05:11:41;;;;;;;;;;;1.90;99.90;;;;;;5060209;28;19974;-81
2023/01/20 05:14:07;;;;;;;;;;;0.00;99.90;;;;;;5048412;28;20314;-81
2023/01/20 05:16:33;;;;;;;;;;;-3.00;99.90;;;;;;5061376;28;19921;-81
2023/01/20 05:18:59;;;;;;;;;;;-0.60;99.90;;;;;;5065053;28;19925;-80
2023/01/20 05:21:25;;;;;;;;;;;-0.50;99.90;;;;;;5064465;28;19924;-80
2023/01/20 05:23:54;;;;;;;;;;;-0.60;99.90;;;;;;5040058;28;19927;-80
2023/01/20 05:26:21;;;;;;;;;;;-0.60;99.90;;;;;;5059572;28;19963;-80
2023/01/20 05:28:46;;;;;;;;;;;-0.60;99.90;;;;;;5063338;28;19932;-80
2023/01/20 05:31:12;;;;;;;;;;;-0.60;99.90;;;;;;5059011;28;20394;-80
2023/01/20 05:33:38;;;;;;;;;;;0.70;99.90;;;;;;5033116;28;19921;-80
2023/01/20 05:36:05;;;;;;;;;;;-0.60;99.90;;;;;;5063143;28;20286;-80
2023/01/20 05:38:30;;;;;;;;;;;-0.30;99.90;;;;;;5066102;28;19962;-80
2023/01/20 05:41:20;;;;;;;;;;;-0.40;99.90;;;;;;5059208;28;19976;-80
2023/01/20 05:43:45;;;;;;;;;;;-0.30;99.90;;;;;;5033888;28;19927;-80
2023/01/20 05:46:11;;;;;;;;;;;-0.30;99.90;;;;;;5067472;28;19920;-82
2023/01/20 05:48:36;;;;;;;;;;;-0.20;99.90;;;;;;5039863;28;19932;-80
2023/01/20 05:51:02;;;;;;;;;;;1.60;99.90;;;;;;5063575;28;19920;-78
2023/01/20 05:53:27;;;;;;;;;;;-0.20;99.90;;;;;;5065632;28;20022;-77
2023/01/20 05:56:03;;;;;;;;;;;-0.10;99.90;;;;;;5061142;28;19971;-75
2023/01/20 05:58:29;;;;;;;;;;;0.00;99.90;;;;;;5056064;28;19924;-78
2023/01/20 06:01:02;;;;;;;;;;;-0.20;99.90;;;;;;5067551;28;19927;-80
2023/01/20 06:03:27;;;;;;;;;;;0.30;99.90;;;;;;5038798;28;19988;-77
2023/01/20 06:05:58;;;;;;;;;;;0.40;99.90;;;;;;5037338;28;19978;-89
2023/01/20 06:08:23;;;;;;;;;;;0.60;99.90;;;;;;5050166;28;19905;-86
2023/01/20 06:10:51;;;;;;;;;;;1.30;99.90;;;;;;5078982;28;19943;-85
2023/01/20 06:13:16;;;;;;;;;;;0.70;99.90;;;;;;5076238;28;19925;-88
2023/01/20 06:15:42;;;;;;;;;;;0.80;99.90;;;;;;5028851;28;19921;-84
2023/01/20 06:18:11;;;;;;;;;;;0.80;99.90;;;;;;5058394;28;19921;-81
2023/01/20 06:20:37;;;;;;;;;;;1.10;99.90;;;;;;5048479;28;19925;-81
2023/01/20 06:23:03;;;;;;;;;;;0.60;99.90;;;;;;5067243;28;20376;-82
2023/01/20 06:25:28;;;;;;;;;;;1.80;99.90;;;;;;5033754;28;19924;-86
2023/01/20 06:27:54;;;;;;;;;;;0.90;99.90;;;;;;5042160;28;20011;-92
2023/01/20 06:30:22;;;;;;;;;;;0.80;99.90;;;;;;5047226;28;19927;-84
2023/01/20 06:32:47;;;;;;;;;;;0.70;99.90;;;;;;5040279;28;19928;-82
2023/01/20 06:35:13;;;;;;;;;;;0.70;99.90;;;;;;5037586;28;20279;-86
2023/01/20 06:37:39;;;;;;;;;;;0.50;99.90;;;;;;5060926;28;20004;-80
2023/01/20 06:40:05;;;;;;;;;;;0.70;99.90;;;;;;5058119;28;19920;-83
2023/01/20 06:42:31;;;;;;;;;;;0.80;99.90;;;;;;5048044;28;20352;-78
2023/01/20 06:44:56;;;;;;;;;;;0.70;99.90;;;;;;5055181;28;19952;-77
2023/01/20 06:47:22;;;;;;;;;;;0.80;99.90;;;;;;5060573;28;19924;-77
2023/01/20 06:49:48;;;;;;;;;;;0.80;99.90;;;;;;5061493;28;20286;-77
2023/01/20 06:52:13;;;;;;;;;;;0.80;99.90;;;;;;5030215;28;20389;-76
2023/01/20 06:54:39;;;;;;;;;;;1.20;99.90;;;;;;5062218;28;19927;-77
2023/01/20 06:57:04;;;;;;;;;;;0.80;99.90;;;;;;5061635;28;19974;-78
2023/01/20 06:59:30;;;;;;;;;;;2.70;99.90;;;;;;5061438;28;19921;-77
2023/01/20 07:01:55;;;;;;;;;;;0.70;99.90;;;;;;5061093;28;20216;-81
2023/01/20 07:04:21;;;;;;;;;;;0.90;99.90;;;;;;5059979;28;19987;-82
2023/01/20 07:06:46;;;;;;;;;;;0.70;99.90;;;;;;5060187;28;19920;-80
2023/01/20 07:09:12;;;;;;;;;;;0.70;99.90;;;;;;5033920;28;20288;-80
2023/01/20 07:11:38;;;;;;;;;;;1.30;99.90;;;;;;5053268;28;19921;-80
2023/01/20 07:14:07;;;;;;;;;;;2.70;99.90;;;;;;5060913;28;19924;-80
2023/01/20 07:16:33;;;;;;;;;;;0.80;99.90;;;;;;5063415;28;19927;-80
2023/01/20 07:19:01;;;;;;;;;;;1.80;99.90;;;;;;5062933;28;19924;-79
2023/01/20 07:21:27;;;;;;;;;;;0.70;99.90;;;;;;5055392;28;19920;-79
2023/01/20 07:23:52;;;;;;;;;;;1.20;99.90;;;;;;5024494;28;19928;-79
2023/01/20 07:26:19;;;;;;;;;;;2.50;99.90;;;;;;5063770;28;20410;-79
2023/01/20 07:28:45;;;;;;;;;;;1.90;99.90;;;;;;5020435;28;19924;-79
2023/01/20 07:31:17;;;;;;;;;;;0.90;99.90;;;;;;5050149;28;20000;-78
2023/01/20 07:33:43;;;;;;;;;;;1.00;99.90;;;;;;5048648;28;19920;-78
2023/01/20 07:36:10;;;;;;;;;;;1.00;99.90;;;;;;5057983;28;19944;-77
2023/01/20 07:38:36;;;;;;;;;;;1.30;99.90;;;;;;5062990;28;19921;-79
2023/01/20 07:41:03;;;;;;;;;;;1.00;99.90;;;;;;5055415;28;19927;-79
2023/01/20 07:43:28;;;;;;;;;;;0.90;99.90;;;;;;5061981;28;19920;-79
2023/01/20 07:45:55;;;;;;;;;;;1.30;99.90;;;;;;5038111;28;19920;-78
2023/01/20 07:48:21;;;;;;;;;;;0.90;99.90;;;;;;5037595;28;19920;-79
2023/01/20 07:50:46;;;;;;;;;;;1.00;99.90;;;;;;5060801;28;20391;-79
2023/01/20 07:53:12;;;;;;;;;;;1.00;99.90;;;;;;5046224;28;19966;-78
2023/01/20 07:55:37;;;;;;;;;;;0.90;99.90;;;;;;5037140;28;19970;-79
2023/01/20 07:58:03;;;;;;;;;;;1.10;99.90;;;;;;5043695;28;19929;-79
2023/01/20 08:00:28;;;;;;;;;;;2.00;99.90;;;;;;5062446;28;19920;-79
2023/01/20 08:02:54;;;;;;;;;;;1.40;99.90;;;;;;5061562;28;20364;-79
2023/01/20 08:05:20;;;;;;;;;;;2.30;99.90;;;;;;5026732;28;19928;-79
2023/01/20 08:07:48;;;;;;;;;;;1.10;99.90;;;;;;5039827;28;19928;-78
2023/01/20 08:10:14;;;;;;;;;;;1.10;99.90;;;;;;5045031;28;20322;-79
2023/01/20 08:12:40;;;;;;;;;;;1.10;99.90;;;;;;5038317;28;19920;-79
2023/01/20 08:15:05;;;;;;;;;;;1.40;99.90;;;;;;5055370;28;19983;-79
2023/01/20 08:17:31;;;;;;;;;;;1.10;99.90;;;;;;5063155;28;19924;-79
2023/01/20 08:19:56;;;;;;;;;;;1.00;99.90;;;;;;5064384;28;19927;-79
2023/01/20 08:22:24;;;;;;;;;;;2.40;99.90;;;;;;5060663;28;19916;-79
2023/01/20 08:24:49;;;;;;;;;;;1.10;99.90;;;;;;5027768;28;19924;-79
2023/01/20 08:27:15;;;;;;;;;;;4.20;99.90;;;;;;5062252;28;19920;-79
2023/01/20 08:29:40;;;;;;;;;;;1.90;99.90;;;;;;5029884;28;19929;-79
2023/01/20 08:32:06;;;;;;;;;;;1.70;99.90;;;;;;5059611;28;19959;-77
2023/01/20 08:34:32;;;;;;;;;;;3.10;99.90;;;;;;5061540;28;19982;-77
2023/01/20 08:37:01;;;;;;;;;;;1.00;99.90;;;;;;5056655;28;20646;-76
2023/01/20 08:39:27;;;;;;;;;;;1.10;99.90;;;;;;5036431;28;19928;-81
2023/01/20 08:42:17;;;;;;;;;;;1.20;99.90;;;;;;5053191;28;19947;-85
2023/01/20 08:44:43;;;;;;;;;;;1.20;99.90;;;;;;5038406;28;19925;-86
2023/01/20 08:47:09;;;;;;;;;;;1.10;99.90;;;;;;5040176;28;19921;-79
2023/01/20 08:49:34;;;;;;;;;;;0.50;99.90;;;;;;5058437;28;20375;-83
2023/01/20 08:52:00;;;;;;;;;;;1.20;99.90;;;;;;5059316;28;19928;-85
2023/01/20 08:54:28;;;;;;;;;;;3.10;99.90;;;;;;5059349;28;20701;-79
2023/01/20 08:56:53;;;;;;;;;;;1.90;99.90;;;;;;5041156;28;19928;-80
2023/01/20 08:59:19;;;;;;;;;;;0.80;99.90;;;;;;5060007;28;19936;-83
2023/01/20 09:01:45;;;;;;;;;;;2.10;99.90;;;;;;5059933;28;19924;-82
2023/01/20 09:04:13;;;;;;;;;;;1.20;99.90;;;;;;5037272;28;20585;-81
2023/01/20 09:06:43;;;;;;;;;;;1.20;99.90;;;;;;5058047;28;19928;-82
2023/01/20 09:09:09;;;;;;;;;;;1.40;99.90;;;;;;5041680;28;19929;-83
2023/01/20 09:11:34;;;;;;;;;;;1.30;99.90;;;;;;5057819;28;19921;-82
2023/01/20 09:14:02;;;;;;;;;;;2.50;99.90;;;;;;5065243;28;19999;-79
2023/01/20 09:16:28;;;;;;;;;;;2.10;99.90;;;;;;5051483;28;19921;-82
2023/01/20 09:18:54;;;;;;;;;;;1.30;99.90;;;;;;5056487;28;20296;-81
2023/01/20 09:21:19;;;;;;;;;;;3.20;99.90;;;;;;5058412;28;19950;-84
2023/01/20 09:23:47;;;;;;;;;;;1.70;99.90;;;;;;5061677;28;19920;-84
2023/01/20 09:26:12;;;;;;;;;;;1.20;99.90;;;;;;5058514;28;19920;-92
2023/01/20 09:28:38;;;;;;;;;;;1.20;99.90;;;;;;5061525;28;19924;-88
2023/01/20 09:31:07;;;;;;;;;;;0.90;99.90;;;;;;5062441;28;19921;-82
2023/01/20 09:33:35;;;;;;;;;;;1.40;99.90;;;;;;5060286;28;19927;-81
2023/01/20 09:36:01;;;;;;;;;;;1.40;99.90;;;;;;5058119;28;20372;-80
2023/01/20 09:44:01;;;;;;;;;;;1.40;99.90;;;;;;5039347;28;20351;-81
2023/01/20 09:46:26;;;;;;;;;;;1.40;99.90;;;;;;5065586;28;19925;-81
2023/01/20 09:54:40;;;;;;;;;;;1.30;99.90;;;;;;5059156;28;19931;-83
2023/01/20 09:57:07;;;;;;;;;;;1.40;99.90;;;;;;5065148;28;19943;-81
2023/01/20 09:59:39;;;;;;;;;;;1.20;99.90;;;;;;5046672;28;20306;-83
2023/01/20 10:02:12;;;;;;;;;;;2.40;99.90;;;;;;5040852;28;19925;-83
2023/01/20 10:04:40;;;;;;;;;;;1.50;99.90;;;;;;5064655;28;19920;-83
2023/01/20 10:07:09;;;;;;;;;;;1.60;99.90;;;;;;5036758;28;20268;-79
2023/01/20 10:09:34;;;;;;;;;;;1.60;99.90;;;;;;5037324;28;19946;-80
2023/01/20 10:12:06;;;;;;;;;;;1.50;99.90;;;;;;5038027;28;20381;-81
2023/01/20 10:14:34;;;;;;;;;;;3.00;99.90;;;;;;5060701;28;19951;-81
2023/01/20 10:16:59;;;;;;;;;;;2.60;99.90;;;;;;5067448;28;19920;-80
2023/01/20 10:19:29;;;;;;;;;;;1.60;99.90;;;;;;5062561;28;20295;-80
2023/01/20 10:22:01;;;;;;;;;;;3.10;99.90;;;;;;5064361;28;19956;-80
2023/01/20 10:24:30;;;;;;;;;;;1.50;99.90;;;;;;5058881;28;20380;-81
2023/01/20 10:27:02;;;;;;;;;;;2.60;99.90;;;;;;5064389;28;19974;-80
2023/01/20 10:29:32;;;;;;;;;;;1.70;99.90;;;;;;5045304;28;19926;-80
2023/01/20 10:31:59;;;;;;;;;;;2.30;99.90;;;;;;5054316;28;19921;-81
2023/01/20 10:34:27;;;;;;;;;;;1.90;99.90;;;;;;5061909;28;20008;-79
2023/01/20 10:37:06;;;;;;;;;;;4.30;99.90;;;;;;5061997;28;19948;-88
2023/01/20 10:39:52;;;;;;;;;;;1.90;99.90;;;;;;5043215;28;19936;-89
2023/01/20 10:42:18;;;;;;;;;;;1.90;99.90;;;;;;5066782;28;19930;-80
2023/01/20 10:44:44;;;;;;;;;;;1.90;99.90;;;;;;5057678;28;20386;-74
2023/01/20 10:47:28;;;;;;;;;;;1.90;99.90;;;;;;5061963;28;20022;-81
2023/01/20 10:50:00;;;;;;;;;;;2.00;99.90;;;;;;5031384;28;20028;-85
2023/01/20 10:52:47;;;;;;;;;;;2.10;99.90;;;;;;5060474;28;20106;-80
2023/01/20 10:55:19;;;;;;;;;;;2.20;99.90;;;;;;5034211;28;19935;-85
2023/01/20 10:57:53;;;;;;;;;;;2.10;99.90;;;;;;5051789;28;19968;-80
2023/01/20 11:00:22;;;;;;;;;;;2.10;99.90;;;;;;5045645;28;19920;-79
2023/01/20 11:02:48;;;;;;;;;;;2.20;99.90;;;;;;5045678;28;19966;-80
2023/01/20 11:05:16;;;;;;;;;;;2.10;99.90;;;;;;5051505;28;19980;-76
2023/01/20 11:07:45;;;;;;;;;;;2.10;99.90;;;;;;5064361;28;19924;-78
2023/01/20 11:10:15;;;;;;;;;;;2.10;99.90;;;;;;5034549;28;20391;-77
2023/01/20 11:12:42;;;;;;;;;;;2.10;99.90;;;;;;5055237;28;20418;-79
2023/01/20 11:15:19;;;;;;;;;;;2.70;99.90;;;;;;5040923;28;19921;-83
2023/01/20 11:17:45;;;;;;;;;;;2.10;99.90;;;;;;5060887;28;19956;-77
2023/01/20 11:20:18;;;;;;;;;;;2.20;99.90;;;;;;5064511;28;19925;-92
2023/01/20 11:22:50;;;;;;;;;;;2.20;99.90;;;;;;5074894;28;19966;-84
2023/01/20 11:25:23;;;;;;;;;;;2.10;99.90;;;;;;5075768;28;19907;-90
2023/01/20 11:27:49;;;;;;;;;;;2.10;99.90;;;;;;5088518;28;19905;-87
2023/01/20 11:30:21;;;;;;;;;;;2.10;99.90;;;;;;5068821;28;19982;-87
2023/01/20 11:33:06;;;;;;;;;;;2.10;99.90;;;;;;5064810;28;19931;-80
2023/01/20 11:35:31;;;;;;;;;;;2.10;99.90;;;;;;5062786;28;19924;-80
2023/01/20 11:37:57;;;;;;;;;;;3.40;99.90;;;;;;5066843;28;19975;-76
2023/01/20 11:40:24;;;;;;;;;;;3.30;99.90;;;;;;5068179;28;19921;-89
2023/01/20 11:42:51;;;;;;;;;;;2.20;99.90;;;;;;5071597;28;19916;-84
2023/01/20 11:45:31;;;;;;;;;;;2.20;99.90;;;;;;5051097;28;19925;-89
2023/01/20 11:48:01;;;;;;;;;;;2.30;99.90;;;;;;5061832;28;20011;-84
2023/01/20 11:50:37;;;;;;;;;;;2.20;99.90;;;;;;5065971;28;19924;-88
2023/01/20 11:53:16;;;;;;;;;;;2.20;99.90;;;;;;5055168;28;19927;-74
2023/01/20 11:55:45;;;;;;;;;;;2.20;99.90;;;;;;5039488;28;20337;-81
2023/01/20 11:58:15;;;;;;;;;;;4.00;99.90;;;;;;5044294;28;19916;-82
2023/01/20 12:00:42;;;;;;;;;;;4.40;99.90;;;;;;5054416;28;19960;-74
2023/01/20 12:03:13;;;;;;;;;;;2.10;99.90;;;;;;5057710;28;20015;-75
2023/01/20 12:05:38;;;;;;;;;;;2.10;99.90;;;;;;5058271;28;19924;-73
2023/01/20 12:08:09;;;;;;;;;;;3.00;99.90;;;;;;5059411;28;19920;-72
2023/01/20 12:10:36;;;;;;;;;;;2.10;99.90;;;;;;5042672;28;19928;-75
2023/01/20 12:13:07;;;;;;;;;;;3.70;99.90;;;;;;5046710;28;19928;-81
2023/01/20 12:15:34;;;;;;;;;;;2.20;99.90;;;;;;5043084;28;19920;-82
2023/01/20 12:18:31;;;;;;;;;;;4.30;99.90;;;;;;5058010;28;19964;-76
2023/01/20 12:21:06;;;;;;;;;;;2.10;99.90;;;;;;5023815;28;19952;-82
2023/01/20 12:23:44;;;;;;;;;;;2.10;99.90;;;;;;5055187;28;19946;-79
2023/01/20 12:26:11;;;;;;;;;;;2.10;99.90;;;;;;5041902;28;19927;-75
2023/01/20 12:28:56;;;;;;;;;;;4.40;99.90;;;;;;5059892;28;20398;-79
2023/01/20 12:31:22;;;;;;;;;;;2.10;99.90;;;;;;5062035;28;19921;-75
2023/01/20 12:33:49;;;;;;;;;;;2.10;99.90;;;;;;5059598;28;19968;-76
2023/01/20 12:36:33;;;;;;;;;;;2.00;99.90;;;;;;5034991;28;20518;-79
2023/01/20 12:39:08;;;;;;;;;;;2.10;99.90;;;;;;5022850;28;19929;-75
2023/01/20 12:41:44;;;;;;;;;;;3.70;99.90;;;;;;5062056;28;19952;-80
2023/01/20 12:44:25;;;;;;;;;;;2.10;99.90;;;;;;5034596;28;19982;-80
2023/01/20 12:46:56;;;;;;;;;;;2.10;99.90;;;;;;5040022;28;19995;-80
2023/01/20 12:49:25;;;;;;;;;;;2.20;99.90;;;;;;5056113;28;19920;-80
2023/01/20 12:51:50;;;;;;;;;;;2.20;99.90;;;;;;5033136;28;19921;-77
2023/01/20 12:54:38;;;;;;;;;;;2.20;99.90;;;;;;5038664;28;19930;-77
2023/01/20 12:57:10;;;;;;;;;;;2.20;99.90;;;;;;5056417;28;19920;-83
2023/01/20 12:59:42;;;;;;;;;;;2.20;99.90;;;;;;5029031;28;19920;-81
2023/01/20 13:02:07;;;;;;;;;;;2.10;99.90;;;;;;5061271;28;19924;-80
2023/01/20 13:04:51;;;;;;;;;;;2.00;99.90;;;;;;5039501;28;20264;-78
2023/01/20 13:07:17;;;;;;;;;;;2.00;99.90;;;;;;5051652;28;19928;-77
2023/01/20 13:09:45;;;;;;;;;;;1.80;99.90;;;;;;5038577;28;19921;-79
2023/01/20 13:12:28;;;;;;;;;;;2.00;99.90;;;;;;5022799;28;20392;-76
2023/01/20 13:14:57;;;;;;;;;;;2.00;99.90;;;;;;5062397;28;19970;-77
2023/01/20 13:17:41;;;;;;;;;;;2.00;99.90;;;;;;5058219;28;19920;-78
2023/01/20 13:20:17;;;;;;;;;;;2.00;99.90;;;;;;5037441;28;19925;-76
2023/01/20 13:22:43;;;;;;;;;;;2.00;99.90;;;;;;5062555;28;19920;-75
2023/01/20 13:25:12;;;;;;;;;;;1.90;99.90;;;;;;5041401;28;19928;-76
2023/01/20 13:27:37;;;;;;;;;;;3.70;99.90;;;;;;5032671;28;19925;-76
2023/01/20 13:30:04;;;;;;;;;;;1.90;99.90;;;;;;5064397;28;20330;-76
2023/01/20 13:32:30;;;;;;;;;;;1.90;99.90;;;;;;5063225;28;19928;-77
2023/01/20 13:34:56;;;;;;;;;;;2.00;99.90;;;;;;5065493;28;19924;-76
2023/01/20 13:37:21;;;;;;;;;;;4.60;99.90;;;;;;5054493;28;19921;-76
2023/01/20 13:39:48;;;;;;;;;;;2.00;99.90;;;;;;5047478;28;19920;-76
2023/01/20 13:42:32;;;;;;;;;;;3.80;99.90;;;;;;5035914;28;19979;-76
2023/01/20 13:45:10;;;;;;;;;;;2.00;99.90;;;;;;5065217;28;19959;-76
2023/01/20 13:47:47;;;;;;;;;;;2.00;99.90;;;;;;5059741;28;19928;-76
2023/01/20 13:50:24;;;;;;;;;;;1.90;99.90;;;;;;5058527;28;20011;-75
2023/01/20 13:52:49;;;;;;;;;;;1.90;99.90;;;;;;5064163;28;19921;-77
2023/01/20 13:55:47;;;;;;;;;;;1.90;99.90;;;;;;5060162;28;19924;-76
2023/01/20 13:58:13;;;;;;;;;;;2.00;99.90;;;;;;4998193;28;19920;-78
2023/01/20 14:00:39;;;;;;;;;;;1.90;99.90;;;;;;5056917;28;20003;-77
2023/01/20 14:03:16;;;;;;;;;;;3.30;99.90;;;;;;5040063;28;19921;-77
2023/01/20 14:05:42;;;;;;;;;;;1.90;99.90;;;;;;5047377;28;19924;-76
2023/01/20 14:08:16;;;;;;;;;;;1.60;99.90;;;;;;5027391;28;20288;-76
2023/01/20 14:10:42;;;;;;;;;;;2.00;99.90;;;;;;5055734;28;20021;-76
2023/01/20 14:13:09;;;;;;;;;;;3.20;99.90;;;;;;5059452;28;20387;-76
2023/01/20 14:15:35;;;;;;;;;;;2.10;99.90;;;;;;5064543;28;20003;-76
2023/01/20 14:18:01;;;;;;;;;;;2.80;99.90;;;;;;5062804;28;19986;-77
2023/01/20 14:20:27;;;;;;;;;;;2.00;99.90;;;;;;5038861;28;19975;-76
2023/01/20 14:22:53;;;;;;;;;;;4.00;99.90;;;;;;5033246;28;19917;-77
2023/01/20 14:25:20;;;;;;;;;;;2.00;99.90;;;;;;5063952;28;19990;-77
2023/01/20 14:27:45;;;;;;;;;;;2.00;99.90;;;;;;5062028;28;19947;-76
2023/01/20 14:30:14;;;;;;;;;;;2.00;99.90;;;;;;5047085;28;19921;-76
2023/01/20 14:32:39;;;;;;;;;;;2.00;99.90;;;;;;5039971;28;19920;-76
2023/01/20 14:35:26;;;;;;;;;;;3.30;99.90;;;;;;5060874;28;20256;-76
2023/01/20 14:37:52;;;;;;;;;;;2.00;99.90;;;;;;5059984;28;19975;-77
2023/01/20 14:40:17;;;;;;;;;;;1.90;99.90;;;;;;5038611;28;19916;-78
2023/01/20 14:42:53;;;;;;;;;;;1.90;99.90;;;;;;5038595;28;19985;-79
2023/01/20 14:45:19;;;;;;;;;;;1.70;99.90;;;;;;5062720;28;19920;-78